Loveland, Ohio
Current Conditions -  °F | °C
As of 2:31 PM on Thursday 18 Dec 2014 (Local Time) from KLUK Reporting Station
Overcast Overcast  
Wind Chill: 30°   Ceiling: 9500
Heat Index: 30°   Visibility: 9mi
Dew Point: 19°   Wind: 0mph
Humidity: 64%   Direction: NA
Pressure: 30.25"   Gusts: NA
Location:  39.27°N, 84.26°W
Report Text: KLUK 181931Z 00000KT 9SM SCT028 OVC095 M01/M07 A3025 RMK AO2 T10111072
Loading
Personal Weather Stations






























Interactive Weather Map New forecast layout! Learn more

10-Day Weather Forecast

Advertisements
Track Severe Weather on mobile